Time;durP1;ratioP1;P1;durP2;ratioP2;P2;SDS_P1;SDS_P2;PMS_P1;PMS_P2;Temp;Humidity;BMP_temperature;BMP_pressure;BME280_temperature;BME280_humidity;BME280_pressure;Samples;Min_cycle;Max_cycle;Signal;HPM_P1;HPM_P2
2021/11/29 00:00:48;;;;;;;;;;;23.50;49.40;;;;;;1562149;74;742;-58
2021/11/29 00:02:51;;;;;;;;;;;23.50;49.40;;;;;;1565751;74;774;-59
2021/11/29 00:04:53;;;;;;;;;;;23.50;49.40;;;;;;1566750;74;793;-59
2021/11/29 00:06:55;;;;;;;;;;;23.50;49.40;;;;;;1566681;74;1131;-59
2021/11/29 00:08:57;;;;;;;;;;;23.50;49.40;;;;;;1563019;74;1942;-58
2021/11/29 00:10:59;;;;;;;;;;;23.50;49.50;;;;;;1553813;74;731;-59
2021/11/29 00:13:01;;;;;;;;;;;23.50;49.50;;;;;;1566061;74;635;-58
2021/11/29 00:15:03;;;;;;;;;;;23.40;49.40;;;;;;1566893;74;686;-58
2021/11/29 00:17:05;;;;;;;;;;;23.40;49.50;;;;;;1563299;74;1161;-59
2021/11/29 00:19:07;;;;;;;;;;;23.50;49.60;;;;;;1561217;74;776;-58
2021/11/29 00:21:11;;;;;;;;;;;23.50;49.50;;;;;;1566313;74;792;-59
2021/11/29 00:23:13;;;;;;;;;;;23.40;49.40;;;;;;1566321;74;1666;-59
2021/11/29 00:25:15;;;;;;;;;;;23.40;49.60;;;;;;1566006;74;735;-60
2021/11/29 00:27:16;;;;;;;;;;;23.40;49.70;;;;;;1562555;74;1150;-58
2021/11/29 00:29:18;;;;;;;;;;;23.40;49.70;;;;;;1566387;74;1994;-59
2021/11/29 00:31:20;;;;;;;;;;;23.50;49.80;;;;;;1566841;74;786;-58
2021/11/29 00:33:22;;;;;;;;;;;23.40;49.80;;;;;;1566029;74;692;-60
2021/11/29 00:35:24;;;;;;;;;;;23.50;49.90;;;;;;1566410;74;739;-60
2021/11/29 00:37:26;;;;;;;;;;;23.50;50.00;;;;;;1562693;74;1165;-59
2021/11/29 00:39:28;;;;;;;;;;;23.50;50.10;;;;;;1566725;74;765;-58
2021/11/29 00:41:30;;;;;;;;;;;23.40;50.00;;;;;;1563876;74;743;-59
2021/11/29 00:43:32;;;;;;;;;;;23.50;50.20;;;;;;1566743;74;721;-58
2021/11/29 00:45:34;;;;;;;;;;;23.50;50.30;;;;;;1566513;74;795;-57
2021/11/29 00:47:36;;;;;;;;;;;23.50;50.30;;;;;;1566731;74;1087;-59
2021/11/29 00:49:38;;;;;;;;;;;23.40;50.20;;;;;;1566171;74;1966;-59
2021/11/29 00:51:39;;;;;;;;;;;23.50;50.30;;;;;;1565756;74;718;-59
2021/11/29 00:53:42;;;;;;;;;;;23.50;50.20;;;;;;1553838;74;697;-59
2021/11/29 00:55:44;;;;;;;;;;;23.50;50.20;;;;;;1563522;74;1126;-59
2021/11/29 00:57:46;;;;;;;;;;;23.50;50.20;;;;;;1564212;74;800;-58
2021/11/29 00:59:49;;;;;;;;;;;23.50;50.20;;;;;;1564936;74;714;-58
2021/11/29 01:01:50;;;;;;;;;;;23.50;50.40;;;;;;1566600;74;750;-59
2021/11/29 01:03:52;;;;;;;;;;;23.50;50.40;;;;;;1565625;74;718;-58
2021/11/29 01:05:54;;;;;;;;;;;23.40;50.40;;;;;;1566948;74;1139;-58
2021/11/29 01:07:56;;;;;;;;;;;23.30;50.40;;;;;;1566926;74;882;-58
2021/11/29 01:09:58;;;;;;;;;;;23.40;50.50;;;;;;1562654;74;1942;-59
2021/11/29 01:12:00;;;;;;;;;;;23.40;50.40;;;;;;1560773;74;684;-58
2021/11/29 01:14:02;;;;;;;;;;;23.40;50.40;;;;;;1563899;74;780;-58
2021/11/29 01:16:04;;;;;;;;;;;23.40;50.40;;;;;;1561799;74;1082;-59
2021/11/29 01:18:11;;;;;;;;;;;23.50;50.60;;;;;;1567064;74;722;-59
2021/11/29 01:20:12;;;;;;;;;;;23.40;50.50;;;;;;1565654;74;1119;-59
2021/11/29 01:22:14;;;;;;;;;;;23.50;50.50;;;;;;1566348;74;710;-57
2021/11/29 01:24:16;;;;;;;;;;;23.50;50.50;;;;;;1560488;74;921;-59
2021/11/29 01:26:18;;;;;;;;;;;23.40;50.40;;;;;;1554898;74;1160;-58
2021/11/29 01:28:20;;;;;;;;;;;23.50;50.50;;;;;;1566756;74;694;-59
2021/11/29 01:30:22;;;;;;;;;;;23.40;50.50;;;;;;1562703;74;1951;-59
2021/11/29 01:32:24;;;;;;;;;;;23.40;50.50;;;;;;1557910;74;777;-58
2021/11/29 01:34:26;;;;;;;;;;;23.40;50.50;;;;;;1561477;74;688;-58
2021/11/29 01:36:28;;;;;;;;;;;23.40;50.50;;;;;;1566746;74;1142;-58
2021/11/29 01:38:30;;;;;;;;;;;23.40;50.60;;;;;;1561986;74;747;-57
2021/11/29 01:40:32;;;;;;;;;;;23.30;50.60;;;;;;1566730;74;707;-58
2021/11/29 01:42:34;;;;;;;;;;;23.30;50.60;;;;;;1565677;74;744;-57
2021/11/29 01:44:36;;;;;;;;;;;23.30;50.60;;;;;;1561969;74;809;-58
2021/11/29 01:46:38;;;;;;;;;;;23.30;50.70;;;;;;1562743;74;1142;-58
2021/11/29 01:48:40;;;;;;;;;;;23.40;50.70;;;;;;1566830;76;728;-59
2021/11/29 01:50:43;;;;;;;;;;;23.40;50.60;;;;;;1565867;75;1892;-59
2021/11/29 01:52:45;;;;;;;;;;;23.40;50.60;;;;;;1567242;76;725;-57
2021/11/29 01:54:46;;;;;;;;;;;23.40;50.60;;;;;;1566845;75;747;-58
2021/11/29 01:56:48;;;;;;;;;;;23.40;50.70;;;;;;1567235;74;1124;-57
2021/11/29 01:58:50;;;;;;;;;;;23.40;50.60;;;;;;1567326;76;799;-58
2021/11/29 02:00:53;;;;;;;;;;;23.40;50.70;;;;;;1567280;76;698;-59
2021/11/29 02:02:55;;;;;;;;;;;23.30;50.70;;;;;;1567149;76;718;-58
2021/11/29 02:04:59;;;;;;;;;;;23.50;50.80;;;;;;1566754;75;784;-58
2021/11/29 02:07:01;;;;;;;;;;;23.40;50.60;;;;;;1567061;74;1129;-58
2021/11/29 02:09:03;;;;;;;;;;;23.40;50.50;;;;;;1567513;76;703;-59
2021/11/29 02:11:05;;;;;;;;;;;23.40;50.70;;;;;;1567452;76;1933;-59
2021/11/29 02:13:07;;;;;;;;;;;23.40;50.60;;;;;;1566835;76;786;-58
2021/11/29 02:15:11;;;;;;;;;;;23.40;50.60;;;;;;1567246;75;760;-59
2021/11/29 02:17:13;;;;;;;;;;;23.40;50.50;;;;;;1558986;74;1796;-58
2021/11/29 02:19:15;;;;;;;;;;;23.40;50.50;;;;;;1569819;75;773;-58
2021/11/29 02:21:20;;;;;;;;;;;23.40;50.50;;;;;;1570575;76;638;-58
2021/11/29 02:23:22;;;;;;;;;;;23.50;50.60;;;;;;1569219;75;936;-57
2021/11/29 02:25:24;;;;;;;;;;;23.40;50.50;;;;;;1569644;74;670;-58
2021/11/29 02:27:26;;;;;;;;;;;23.50;50.60;;;;;;1575189;74;1104;-58
2021/11/29 02:29:28;;;;;;;;;;;23.50;50.60;;;;;;1574965;75;765;-58
2021/11/29 02:31:33;;;;;;;;;;;23.50;50.60;;;;;;1574885;75;1938;-59
2021/11/29 02:33:35;;;;;;;;;;;23.50;50.60;;;;;;1574911;75;717;-58
2021/11/29 02:35:37;;;;;;;;;;;23.50;50.60;;;;;;1567616;75;785;-59
2021/11/29 02:37:39;;;;;;;;;;;23.50;50.60;;;;;;1567200;76;822;-59
2021/11/29 02:39:44;;;;;;;;;;;23.50;50.70;;;;;;1567387;76;796;-59
2021/11/29 02:41:46;;;;;;;;;;;23.40;50.60;;;;;;1567073;76;864;-58
2021/11/29 02:43:48;;;;;;;;;;;23.30;50.70;;;;;;1566510;75;678;-58
2021/11/29 02:45:50;;;;;;;;;;;23.40;50.80;;;;;;1567396;76;1136;-57
2021/11/29 02:47:52;;;;;;;;;;;23.30;50.70;;;;;;1567064;76;792;-58
2021/11/29 02:49:54;;;;;;;;;;;23.40;50.70;;;;;;1561880;76;1943;-59
2021/11/29 02:51:57;;;;;;;;;;;23.40;50.70;;;;;;1558834;74;734;-59
2021/11/29 02:54:08;;;;;;;;;;;23.40;50.70;;;;;;1567442;74;767;-58
2021/11/29 02:56:10;;;;;;;;;;;23.30;50.70;;;;;;1568844;75;1139;-59
2021/11/29 02:58:12;;;;;;;;;;;23.30;50.70;;;;;;1570316;74;781;-57
2021/11/29 03:00:14;;;;;;;;;;;23.30;50.80;;;;;;1570009;76;789;-59
2021/11/29 03:02:17;;;;;;;;;;;23.30;50.80;;;;;;1567910;74;763;-59
2021/11/29 03:04:19;;;;;;;;;;;23.30;50.80;;;;;;1566557;75;674;-59
2021/11/29 03:06:21;;;;;;;;;;;23.30;50.80;;;;;;1564823;76;1152;-58
2021/11/29 03:08:23;;;;;;;;;;;23.40;50.80;;;;;;1562200;75;770;-59
2021/11/29 03:10:25;;;;;;;;;;;23.30;50.70;;;;;;1577164;74;1938;-59
2021/11/29 03:12:27;;;;;;;;;;;23.40;50.80;;;;;;1589579;74;697;-58
2021/11/29 03:14:28;;;;;;;;;;;23.30;50.70;;;;;;1588605;74;770;-58
2021/11/29 03:16:30;;;;;;;;;;;23.30;50.70;;;;;;1605858;73;1074;-57
2021/11/29 03:18:33;;;;;;;;;;;23.40;50.90;;;;;;1582178;74;786;-58
2021/11/29 03:20:35;;;;;;;;;;;23.40;50.80;;;;;;1585462;75;725;-58
2021/11/29 03:22:37;;;;;;;;;;;23.40;50.70;;;;;;1585406;75;732;-59
2021/11/29 03:24:44;;;;;;;;;;;23.40;50.80;;;;;;1578710;75;595;-59
2021/11/29 03:26:42;;;;;;;;;;;23.50;50.90;;;;;;1566882;74;1609;-59
2021/11/29 03:28:45;;;;;;;;;;;23.50;50.70;;;;;;1574845;75;788;-59
2021/11/29 03:30:47;;;;;;;;;;;23.50;50.70;;;;;;1574683;75;1924;-58
2021/11/29 03:32:49;;;;;;;;;;;23.50;50.60;;;;;;1574933;75;730;-57
2021/11/29 03:34:51;;;;;;;;;;;23.60;50.60;;;;;;1569095;75;785;-59
2021/11/29 03:36:53;;;;;;;;;;;23.50;50.50;;;;;;1567229;76;1118;-59
2021/11/29 03:38:55;;;;;;;;;;;23.40;50.50;;;;;;1567326;76;757;-58
2021/11/29 03:40:57;;;;;;;;;;;23.30;50.60;;;;;;1566028;76;684;-58
2021/11/29 03:42:59;;;;;;;;;;;23.30;50.70;;;;;;1557634;75;666;-59
2021/11/29 03:45:01;;;;;;;;;;;23.30;50.80;;;;;;1570629;74;746;-59
2021/11/29 03:47:03;;;;;;;;;;;23.20;50.90;;;;;;1566814;76;1141;-58
2021/11/29 03:49:05;;;;;;;;;;;23.10;51.10;;;;;;1567200;76;722;-60
2021/11/29 03:51:07;;;;;;;;;;;23.10;51.30;;;;;;1566809;76;1924;-57
2021/11/29 03:53:09;;;;;;;;;;;23.10;51.40;;;;;;1566580;76;934;-56
2021/11/29 03:55:11;;;;;;;;;;;23.00;51.40;;;;;;1566550;75;718;-57
2021/11/29 03:57:13;;;;;;;;;;;22.90;51.50;;;;;;1575898;72;224112;-62
2021/11/29 03:59:15;;;;;;;;;;;22.90;51.80;;;;;;1573909;74;679;-69
2021/11/29 04:01:17;;;;;;;;;;;22.90;51.90;;;;;;1568441;74;766;-70
2021/11/29 04:03:18;;;;;;;;;;;22.90;52.00;;;;;;1555449;76;749;-67
2021/11/29 04:05:20;;;;;;;;;;;22.90;52.20;;;;;;1586175;73;898;-68
2021/11/29 04:07:22;;;;;;;;;;;22.90;52.30;;;;;;1584321;73;1174;-67
2021/11/29 04:09:24;;;;;;;;;;;22.90;52.30;;;;;;1583865;74;778;-67
2021/11/29 04:11:26;;;;;;;;;;;22.90;52.40;;;;;;1567219;73;1937;-67
2021/11/29 04:13:28;;;;;;;;;;;22.80;52.40;;;;;;1580876;74;717;-68
2021/11/29 04:15:30;;;;;;;;;;;22.80;52.50;;;;;;1581414;74;802;-69
2021/11/29 04:17:32;;;;;;;;;;;22.80;52.50;;;;;;1583366;74;1120;-69
2021/11/29 04:19:37;;;;;;;;;;;22.80;52.50;;;;;;1587684;74;791;-68
2021/11/29 04:21:38;;;;;;;;;;;22.80;52.60;;;;;;1588549;75;1635;-65
2021/11/29 04:23:42;;;;;;;;;;;22.80;52.60;;;;;;1589153;75;673;-67
2021/11/29 04:25:57;;;;;;;;;;;22.80;52.70;;;;;;1587996;75;1740;-67
2021/11/29 04:27:59;;;;;;;;;;;22.80;52.60;;;;;;1588822;73;1861;-69
2021/11/29 04:30:06;;;;;;;;;;;22.80;52.60;;;;;;1589251;75;722;-67
2021/11/29 04:32:05;;;;;;;;;;;22.80;52.60;;;;;;1588310;75;1937;-67
2021/11/29 04:34:08;;;;;;;;;;;22.90;52.80;;;;;;1588468;75;723;-68
2021/11/29 04:36:10;;;;;;;;;;;22.80;52.70;;;;;;1564180;73;1146;-64
2021/11/29 04:38:12;;;;;;;;;;;22.80;52.70;;;;;;1565836;73;784;-66
2021/11/29 04:40:14;;;;;;;;;;;22.90;52.90;;;;;;1581279;73;706;-66
2021/11/29 04:42:16;;;;;;;;;;;22.80;52.80;;;;;;1567127;73;808;-66
2021/11/29 04:44:17;;;;;;;;;;;22.80;52.80;;;;;;1566478;73;797;-68
2021/11/29 04:46:19;;;;;;;;;;;22.90;53.00;;;;;;1557796;74;1164;-67
2021/11/29 04:48:21;;;;;;;;;;;22.80;52.80;;;;;;1573539;73;867;-66
2021/11/29 04:50:23;;;;;;;;;;;22.80;52.80;;;;;;1568550;73;721;-66
2021/11/29 04:52:25;;;;;;;;;;;22.80;52.80;;;;;;1573384;73;1933;-69
2021/11/29 04:54:27;;;;;;;;;;;22.80;52.80;;;;;;1586318;74;694;-67
2021/11/29 04:56:29;;;;;;;;;;;22.90;52.90;;;;;;1568449;74;1107;-67
2021/11/29 04:58:30;;;;;;;;;;;22.90;52.80;;;;;;1579797;74;765;-69
2021/11/29 05:00:32;;;;;;;;;;;22.80;52.70;;;;;;1595193;74;808;-67
2021/11/29 05:02:34;;;;;;;;;;;22.80;52.60;;;;;;1581541;74;731;-67
2021/11/29 05:04:36;;;;;;;;;;;22.90;52.80;;;;;;1574764;74;733;-68
2021/11/29 05:06:38;;;;;;;;;;;22.80;52.70;;;;;;1591805;73;1166;-64
2021/11/29 05:08:40;;;;;;;;;;;22.90;52.70;;;;;;1602148;74;781;-67
2021/11/29 05:10:42;;;;;;;;;;;22.90;52.70;;;;;;1596709;74;1935;-67
2021/11/29 05:12:44;;;;;;;;;;;22.90;52.70;;;;;;1589289;74;776;-67
2021/11/29 05:14:46;;;;;;;;;;;22.90;52.80;;;;;;1589256;75;770;-67
2021/11/29 05:16:48;;;;;;;;;;;22.90;52.80;;;;;;1588911;73;1115;-67
2021/11/29 05:18:50;;;;;;;;;;;22.80;52.60;;;;;;1588799;74;752;-67
2021/11/29 05:20:52;;;;;;;;;;;22.90;52.70;;;;;;1589510;75;770;-66
2021/11/29 05:22:54;;;;;;;;;;;22.90;52.60;;;;;;1587920;74;750;-69
2021/11/29 05:24:56;;;;;;;;;;;22.90;52.70;;;;;;1588216;75;732;-67
2021/11/29 05:26:58;;;;;;;;;;;22.90;52.80;;;;;;1589436;73;1126;-68
2021/11/29 05:29:00;;;;;;;;;;;22.90;52.80;;;;;;1589145;75;670;-66
2021/11/29 05:31:02;;;;;;;;;;;22.90;52.80;;;;;;1589415;75;1917;-68
2021/11/29 05:33:04;;;;;;;;;;;22.90;52.80;;;;;;1589194;75;777;-65
2021/11/29 05:35:06;;;;;;;;;;;22.90;52.90;;;;;;1588740;75;732;-65
2021/11/29 05:37:08;;;;;;;;;;;22.90;53.10;;;;;;1589348;73;1250;-66
2021/11/29 05:39:10;;;;;;;;;;;22.90;53.10;;;;;;1589287;75;709;-65
2021/11/29 05:41:12;;;;;;;;;;;22.90;53.00;;;;;;1589364;74;642;-66
2021/11/29 05:43:14;;;;;;;;;;;22.90;52.90;;;;;;1588785;74;631;-65
2021/11/29 05:45:16;;;;;;;;;;;22.90;52.90;;;;;;1589310;75;763;-66
2021/11/29 05:47:18;;;;;;;;;;;22.90;52.90;;;;;;1589396;73;1051;-66
2021/11/29 05:49:20;;;;;;;;;;;23.00;52.90;;;;;;1589364;75;742;-65
2021/11/29 05:51:22;;;;;;;;;;;23.00;52.90;;;;;;1588228;75;1937;-66
2021/11/29 05:53:24;;;;;;;;;;;22.90;52.80;;;;;;1588381;75;792;-67
2021/11/29 05:55:26;;;;;;;;;;;23.00;52.80;;;;;;1587024;74;724;-68
2021/11/29 05:57:28;;;;;;;;;;;23.00;52.80;;;;;;1588663;73;1145;-65
2021/11/29 05:59:30;;;;;;;;;;;23.00;52.80;;;;;;1589204;74;694;-65
2021/11/29 06:01:32;;;;;;;;;;;22.90;52.80;;;;;;1589545;74;795;-64
2021/11/29 06:03:33;;;;;;;;;;;22.90;52.80;;;;;;1591513;74;813;-65
2021/11/29 06:05:35;;;;;;;;;;;23.00;52.70;;;;;;1589471;75;647;-65
2021/11/29 06:07:37;;;;;;;;;;;23.00;52.70;;;;;;1589405;73;1151;-63
2021/11/29 06:09:39;;;;;;;;;;;23.00;52.60;;;;;;1589060;75;718;-64
2021/11/29 06:11:41;;;;;;;;;;;23.00;52.70;;;;;;1588311;75;1917;-66
2021/11/29 06:13:44;;;;;;;;;;;23.00;52.60;;;;;;1589217;75;816;-65
2021/11/29 06:15:46;;;;;;;;;;;23.00;52.60;;;;;;1589076;75;1073;-65
2021/11/29 06:17:48;;;;;;;;;;;23.00;52.60;;;;;;1589400;73;1095;-65
2021/11/29 06:19:49;;;;;;;;;;;23.00;52.60;;;;;;1589390;74;739;-67
2021/11/29 06:21:51;;;;;;;;;;;23.00;52.50;;;;;;1569693;74;782;-66
2021/11/29 06:23:53;;;;;;;;;;;23.00;52.80;;;;;;1585630;74;725;-66
2021/11/29 06:25:55;;;;;;;;;;;23.00;52.80;;;;;;1588533;75;790;-66
2021/11/29 06:27:57;;;;;;;;;;;23.00;52.80;;;;;;1588670;73;1098;-67
2021/11/29 06:29:59;;;;;;;;;;;23.00;52.70;;;;;;1589065;74;786;-66
2021/11/29 06:32:01;;;;;;;;;;;23.00;52.70;;;;;;1583973;74;1933;-64
2021/11/29 06:34:03;;;;;;;;;;;23.00;52.70;;;;;;1580862;74;708;-68
2021/11/29 06:36:04;;;;;;;;;;;23.00;52.70;;;;;;1584264;73;1135;-69
2021/11/29 06:38:06;;;;;;;;;;;23.10;52.80;;;;;;1588355;74;743;-66
2021/11/29 06:40:09;;;;;;;;;;;23.10;52.80;;;;;;1573430;74;709;-63
2021/11/29 06:42:10;;;;;;;;;;;23.20;52.60;;;;;;1584650;74;806;-64
2021/11/29 06:44:12;;;;;;;;;;;23.10;52.40;;;;;;1588415;74;844;-65
2021/11/29 06:46:15;;;;;;;;;;;23.10;52.40;;;;;;1585324;73;1279;-65
2021/11/29 06:48:16;;;;;;;;;;;23.10;52.40;;;;;;1582472;74;701;-65
2021/11/29 06:50:18;;;;;;;;;;;23.10;52.40;;;;;;1582014;73;765;-66
2021/11/29 06:52:20;;;;;;;;;;;23.10;52.40;;;;;;1584348;74;1929;-67
2021/11/29 06:54:22;;;;;;;;;;;23.10;52.30;;;;;;1594416;74;651;-67
2021/11/29 06:56:24;;;;;;;;;;;23.30;52.10;;;;;;1602166;73;1158;-65
2021/11/29 06:58:26;;;;;;;;;;;23.30;52.00;;;;;;1600441;74;769;-65
2021/11/29 07:00:28;;;;;;;;;;;23.30;52.10;;;;;;1589030;74;745;-61
2021/11/29 07:02:30;;;;;;;;;;;23.30;52.20;;;;;;1587172;74;778;-61
2021/11/29 07:04:33;;;;;;;;;;;23.30;51.90;;;;;;1579462;74;802;-62
2021/11/29 07:06:35;;;;;;;;;;;23.60;51.20;;;;;;1571284;74;1151;-61
2021/11/29 07:08:37;;;;;;;;;;;23.70;50.70;;;;;;1587620;73;806;-63
2021/11/29 07:10:43;;;;;;;;;;;23.90;50.40;;;;;;1598300;73;731;-59
2021/11/29 07:12:42;;;;;;;;;;;23.80;50.00;;;;;;1584851;73;1907;-64
2021/11/29 07:14:44;;;;;;;;;;;23.90;49.80;;;;;;1590090;74;799;-61
2021/11/29 07:16:49;;;;;;;;;;;23.90;49.70;;;;;;1593176;73;1158;-62
2021/11/29 07:18:51;;;;;;;;;;;23.90;49.40;;;;;;1591392;74;701;-62
2021/11/29 07:20:55;;;;;;;;;;;23.90;49.30;;;;;;1592050;74;817;-63
2021/11/29 07:22:56;;;;;;;;;;;24.00;49.20;;;;;;1589140;75;796;-63
2021/11/29 07:25:02;;;;;;;;;;;23.90;49.10;;;;;;1588494;75;677;-63
2021/11/29 07:27:02;;;;;;;;;;;24.00;49.00;;;;;;1589300;73;1345;-63
2021/11/29 07:29:04;;;;;;;;;;;24.00;48.90;;;;;;1589045;75;736;-62
2021/11/29 07:31:06;;;;;;;;;;;24.00;48.80;;;;;;1589484;75;705;-62
2021/11/29 07:33:08;;;;;;;;;;;24.00;48.80;;;;;;1588881;75;1937;-63
2021/11/29 07:35:09;;;;;;;;;;;24.00;48.80;;;;;;1589041;75;802;-62
2021/11/29 07:37:15;;;;;;;;;;;23.90;48.60;;;;;;1589479;73;1194;-63
2021/11/29 07:39:15;;;;;;;;;;;23.90;48.70;;;;;;1588986;75;1735;-62
2021/11/29 07:41:17;;;;;;;;;;;24.00;48.70;;;;;;1588084;75;673;-63
2021/11/29 07:43:19;;;;;;;;;;;23.90;48.60;;;;;;1589786;74;763;-64
2021/11/29 07:45:20;;;;;;;;;;;23.90;48.60;;;;;;1587958;74;730;-63
2021/11/29 07:47:23;;;;;;;;;;;23.90;48.60;;;;;;1588814;73;1165;-63
2021/11/29 07:49:25;;;;;;;;;;;24.00;48.60;;;;;;1579394;74;777;-63
2021/11/29 07:51:27;;;;;;;;;;;23.90;48.50;;;;;;1579470;74;882;-63
2021/11/29 07:53:29;;;;;;;;;;;23.90;48.50;;;;;;1596582;74;1941;-63
2021/11/29 07:55:31;;;;;;;;;;;24.00;48.40;;;;;;1590126;74;729;-62
2021/11/29 07:57:33;;;;;;;;;;;23.90;48.40;;;;;;1583885;74;1151;-63
2021/11/29 07:59:35;;;;;;;;;;;24.00;48.30;;;;;;1589872;74;837;-62
2021/11/29 08:01:37;;;;;;;;;;;23.90;48.30;;;;;;1591679;74;795;-61
2021/11/29 08:03:39;;;;;;;;;;;24.00;48.20;;;;;;1574786;74;769;-62
2021/11/29 08:05:41;;;;;;;;;;;23.90;48.20;;;;;;1588428;74;696;-62
2021/11/29 08:07:43;;;;;;;;;;;23.90;48.10;;;;;;1574726;73;1162;-61
2021/11/29 08:09:47;;;;;;;;;;;24.00;48.10;;;;;;1584235;74;772;-61
2021/11/29 08:11:49;;;;;;;;;;;24.00;48.10;;;;;;1581808;74;1949;-62
2021/11/29 08:13:50;;;;;;;;;;;24.00;48.10;;;;;;1589751;74;713;-64
2021/11/29 08:15:52;;;;;;;;;;;24.00;48.10;;;;;;1589039;74;680;-60
2021/11/29 08:17:54;;;;;;;;;;;24.00;48.00;;;;;;1589265;74;1117;-61
2021/11/29 08:19:56;;;;;;;;;;;24.00;48.00;;;;;;1590382;74;777;-60
2021/11/29 08:21:58;;;;;;;;;;;24.00;48.00;;;;;;1578393;74;810;-62
2021/11/29 08:24:00;;;;;;;;;;;23.90;48.00;;;;;;1586233;74;757;-62
2021/11/29 08:26:02;;;;;;;;;;;23.90;48.10;;;;;;1587328;74;755;-61
2021/11/29 08:28:04;;;;;;;;;;;24.00;48.00;;;;;;1590048;73;1186;-62
2021/11/29 08:30:07;;;;;;;;;;;24.00;47.90;;;;;;1584098;74;738;-62
2021/11/29 08:32:09;;;;;;;;;;;24.00;47.80;;;;;;1581185;73;1941;-62
2021/11/29 08:34:13;;;;;;;;;;;24.00;47.80;;;;;;1588683;74;740;-62
2021/11/29 08:36:14;;;;;;;;;;;24.00;47.80;;;;;;1584689;73;1632;-62
2021/11/29 08:38:17;;;;;;;;;;;23.90;47.80;;;;;;1578950;74;765;-65
2021/11/29 08:40:21;;;;;;;;;;;23.90;47.90;;;;;;1574632;73;796;-65
2021/11/29 08:42:22;;;;;;;;;;;23.90;48.00;;;;;;1576606;75;671;-64
2021/11/29 08:44:24;;;;;;;;;;;23.90;47.90;;;;;;1590336;74;749;-66
2021/11/29 08:46:26;;;;;;;;;;;23.90;47.90;;;;;;1590834;73;1147;-65
2021/11/29 08:48:28;;;;;;;;;;;23.80;47.90;;;;;;1568428;76;726;-64
2021/11/29 08:50:30;;;;;;;;;;;23.80;48.00;;;;;;1570119;74;737;-64
2021/11/29 08:52:34;;;;;;;;;;;23.90;48.10;;;;;;1580360;74;1938;-64
2021/11/29 08:54:39;;;;;;;;;;;23.80;47.90;;;;;;1593782;74;804;-64
2021/11/29 08:56:39;;;;;;;;;;;23.80;48.10;;;;;;1583115;73;1769;-69
2021/11/29 08:58:41;;;;;;;;;;;23.70;48.20;;;;;;1586564;74;769;-66
2021/11/29 09:00:44;;;;;;;;;;;23.70;48.30;;;;;;1587756;74;899;-65
2021/11/29 09:02:46;;;;;;;;;;;23.70;48.30;;;;;;1590002;74;778;-66
2021/11/29 09:04:48;;;;;;;;;;;23.70;48.30;;;;;;1584495;74;794;-67
2021/11/29 09:06:50;;;;;;;;;;;23.70;48.40;;;;;;1588919;73;1103;-65
2021/11/29 09:08:51;;;;;;;;;;;23.70;48.40;;;;;;1583958;73;788;-65
2021/11/29 09:10:53;;;;;;;;;;;23.70;48.30;;;;;;1595235;74;740;-71
2021/11/29 09:12:55;;;;;;;;;;;23.70;48.30;;;;;;1581416;74;1888;-66
2021/11/29 09:14:57;;;;;;;;;;;23.70;48.20;;;;;;1587077;74;750;-65
2021/11/29 09:16:59;;;;;;;;;;;23.70;48.20;;;;;;1590990;73;1090;-65
2021/11/29 09:19:01;;;;;;;;;;;23.70;48.20;;;;;;1588576;74;811;-64
2021/11/29 09:21:03;;;;;;;;;;;23.80;48.20;;;;;;1585315;74;687;-66
2021/11/29 09:23:06;;;;;;;;;;;23.80;48.10;;;;;;1588077;74;739;-70
2021/11/29 09:25:08;;;;;;;;;;;23.90;48.10;;;;;;1589697;74;737;-65
2021/11/29 09:27:10;;;;;;;;;;;23.90;48.10;;;;;;1601627;73;1156;-63
2021/11/29 09:29:12;;;;;;;;;;;23.90;48.00;;;;;;1589402;74;836;-65
2021/11/29 09:31:14;;;;;;;;;;;23.90;48.10;;;;;;1589433;75;728;-66
2021/11/29 09:33:16;;;;;;;;;;;23.80;48.10;;;;;;1584526;74;1933;-65
2021/11/29 09:35:18;;;;;;;;;;;23.80;48.10;;;;;;1587584;74;721;-66
2021/11/29 09:37:20;;;;;;;;;;;23.80;48.20;;;;;;1586034;73;1192;-66
2021/11/29 09:39:22;;;;;;;;;;;23.80;48.20;;;;;;1580303;74;711;-65
2021/11/29 09:41:26;;;;;;;;;;;23.70;48.30;;;;;;1588728;75;595;-65
2021/11/29 09:43:28;;;;;;;;;;;23.70;48.20;;;;;;1590780;74;613;-67
2021/11/29 09:45:30;;;;;;;;;;;23.70;48.30;;;;;;1591812;74;787;-64
2021/11/29 09:47:32;;;;;;;;;;;23.70;48.30;;;;;;1595512;72;1138;-65
2021/11/29 09:49:40;;;;;;;;;;;23.70;48.30;;;;;;1590355;74;630;-66
2021/11/29 09:51:42;;;;;;;;;;;23.80;48.30;;;;;;1568577;76;745;-66
2021/11/29 09:53:44;;;;;;;;;;;23.80;48.10;;;;;;1568170;76;1958;-65
2021/11/29 09:55:46;;;;;;;;;;;23.90;48.10;;;;;;1585358;74;709;-65
2021/11/29 09:57:48;;;;;;;;;;;23.80;48.00;;;;;;1544516;73;2115;-67
2021/11/29 09:59:50;;;;;;;;;;;23.80;48.00;;;;;;1500646;77;694;-66
2021/11/29 10:01:52;;;;;;;;;;;23.90;48.00;;;;;;1510461;77;692;-67
2021/11/29 10:03:54;;;;;;;;;;;23.90;48.00;;;;;;1516670;78;716;-66
2021/11/29 10:05:56;;;;;;;;;;;23.90;48.00;;;;;;1512717;77;642;-66
2021/11/29 10:07:58;;;;;;;;;;;23.80;47.90;;;;;;1507172;78;1202;-67
2021/11/29 10:10:13;;;;;;;;;;;23.80;47.90;;;;;;1485403;79;745;-69
2021/11/29 10:12:23;;;;;;;;;;;23.80;47.90;;;;;;1481291;79;1036;-72
2021/11/29 10:14:24;;;;;;;;;;;23.80;48.00;;;;;;1496401;78;677;-65
2021/11/29 10:16:30;;;;;;;;;;;23.70;48.00;;;;;;1490790;78;1179;-69
2021/11/29 10:18:32;;;;;;;;;;;23.80;48.10;;;;;;1491510;78;734;-70
2021/11/29 10:20:35;;;;;;;;;;;23.80;48.00;;;;;;1479206;78;718;-68
2021/11/29 10:22:37;;;;;;;;;;;23.70;48.10;;;;;;1503549;78;1094;-68
2021/11/29 10:24:39;;;;;;;;;;;23.70;48.20;;;;;;1498515;78;785;-69
2021/11/29 10:26:42;;;;;;;;;;;23.80;48.10;;;;;;1457629;81;1154;-70
2021/11/29 10:28:45;;;;;;;;;;;23.80;48.00;;;;;;1457537;81;714;-68
2021/11/29 10:30:47;;;;;;;;;;;23.80;48.00;;;;;;1457042;81;1260;-67
2021/11/29 10:32:49;;;;;;;;;;;23.80;48.00;;;;;;1449542;80;1944;-67
2021/11/29 10:34:51;;;;;;;;;;;23.90;48.10;;;;;;1481929;80;765;-68
2021/11/29 10:36:54;;;;;;;;;;;23.90;47.80;;;;;;1481096;79;1202;-65
2021/11/29 10:38:59;;;;;;;;;;;24.00;47.70;;;;;;1481925;80;710;-66
2021/11/29 10:40:59;;;;;;;;;;;24.00;47.60;;;;;;1483188;79;1626;-65
2021/11/29 10:43:05;;;;;;;;;;;24.00;47.50;;;;;;1493911;77;737;-65
2021/11/29 10:45:07;;;;;;;;;;;24.10;47.50;;;;;;1513998;77;777;-66
2021/11/29 10:47:10;;;;;;;;;;;24.00;47.30;;;;;;1508139;77;1141;-67
2021/11/29 10:49:13;;;;;;;;;;;24.00;47.30;;;;;;1514552;77;792;-66
2021/11/29 10:51:16;;;;;;;;;;;24.00;47.30;;;;;;1506245;79;835;-66
2021/11/29 10:53:18;;;;;;;;;;;24.00;47.30;;;;;;1506381;78;1900;-64
2021/11/29 10:55:20;;;;;;;;;;;24.10;47.50;;;;;;1506062;79;784;-66
2021/11/29 10:57:22;;;;;;;;;;;24.00;47.30;;;;;;1512380;77;1192;-66
2021/11/29 10:59:28;;;;;;;;;;;24.00;47.50;;;;;;1516014;77;633;-66
2021/11/29 11:01:37;;;;;;;;;;;24.00;47.50;;;;;;1516682;78;714;-66
2021/11/29 11:03:46;;;;;;;;;;;24.00;47.60;;;;;;1502059;77;776;-67
2021/11/29 11:05:58;;;;;;;;;;;23.90;47.60;;;;;;1502778;77;1007;-66
2021/11/29 11:08:01;;;;;;;;;;;23.90;47.50;;;;;;1508285;77;1299;-64
2021/11/29 11:10:06;;;;;;;;;;;23.90;47.50;;;;;;1505388;77;1718;-69
2021/11/29 11:12:09;;;;;;;;;;;23.90;47.50;;;;;;1507524;77;886;-67
2021/11/29 11:14:12;;;;;;;;;;;23.80;47.40;;;;;;1504993;77;1930;-66
2021/11/29 11:16:13;;;;;;;;;;;23.90;47.40;;;;;;1507626;77;795;-69
2021/11/29 11:18:15;;;;;;;;;;;23.90;47.30;;;;;;1507826;76;1138;-65
2021/11/29 11:20:17;;;;;;;;;;;23.90;47.30;;;;;;1505340;77;725;-69
2021/11/29 11:22:24;;;;;;;;;;;24.00;47.20;;;;;;1506369;77;814;-68
2021/11/29 11:24:32;;;;;;;;;;;23.90;47.20;;;;;;1502230;77;1687;-65
2021/11/29 11:26:34;;;;;;;;;;;24.00;47.20;;;;;;1502458;77;1090;-69
2021/11/29 11:28:36;;;;;;;;;;;24.00;47.20;;;;;;1507157;78;717;-71
2021/11/29 11:30:42;;;;;;;;;;;24.00;47.20;;;;;;1509317;77;727;-66
2021/11/29 11:32:46;;;;;;;;;;;24.00;47.10;;;;;;1503579;77;707;-67
2021/11/29 11:34:49;;;;;;;;;;;24.00;47.00;;;;;;1514498;77;1909;-68
2021/11/29 11:36:50;;;;;;;;;;;24.00;47.10;;;;;;1506883;77;1190;-67
2021/11/29 11:38:52;;;;;;;;;;;24.00;47.10;;;;;;1508977;77;673;-69
2021/11/29 11:40:55;;;;;;;;;;;24.00;47.10;;;;;;1511920;77;686;-65
2021/11/29 11:42:57;;;;;;;;;;;24.00;47.10;;;;;;1506275;76;785;-66
2021/11/29 11:44:59;;;;;;;;;;;23.90;47.10;;;;;;1518832;77;693;-67
2021/11/29 11:47:01;;;;;;;;;;;24.00;47.10;;;;;;1506072;77;1165;-67
2021/11/29 11:49:04;;;;;;;;;;;23.90;47.10;;;;;;1510335;77;719;-68
2021/11/29 11:51:06;;;;;;;;;;;23.90;47.20;;;;;;1507905;77;756;-68
2021/11/29 11:53:07;;;;;;;;;;;23.90;47.20;;;;;;1506145;77;1938;-67
2021/11/29 11:55:10;;;;;;;;;;;23.90;47.20;;;;;;1510003;77;671;-68
2021/11/29 11:57:13;;;;;;;;;;;23.90;47.30;;;;;;1506159;77;1273;-70
2021/11/29 11:59:16;;;;;;;;;;;23.90;47.30;;;;;;1507355;77;769;-64
2021/11/29 12:01:18;;;;;;;;;;;23.90;47.30;;;;;;1526239;77;726;-66
2021/11/29 12:03:21;;;;;;;;;;;23.80;46.80;;;;;;1525091;77;765;-66
2021/11/29 12:05:29;;;;;;;;;;;23.80;46.90;;;;;;1506403;79;759;-66
2021/11/29 12:07:33;;;;;;;;;;;23.80;46.90;;;;;;1511584;77;1438;-67
2021/11/29 12:09:38;;;;;;;;;;;23.80;46.80;;;;;;1511933;77;644;-67